JBU1880 KLAX-KLAS
Flight info
| Callsign | JBU1880 |
|---|---|
| Flight time | N/A |
| Altitude | 29000 |
| Route | ORCKA5 MISEN RNDRZ4 |
| Aircraft | A321/M-SDE3FGHIRWY/LB1 |
Departure
| Time | 2026-05-05 02:58 |
|---|---|
| Airport | Los Angeles International Airport (KLAX) |
Arrival
| Time | N/A |
|---|---|
| Airport | Harry Reid International Airport (KLAS) |
| Time | Latitude | Longitude | Altitude | Speed | Heading |
|---|---|---|---|---|---|
| 2026-05-05 02:40 | 33.94580 | -118.41630 | 127 ft | 0 kts | 83° |
| 2026-05-05 02:43 | 33.94580 | -118.41631 | 127 ft | 0 kts | 83° |
| 2026-05-05 02:45 | 33.94579 | -118.41635 | 126 ft | 2 kts | 82° |
| 2026-05-05 02:46 | 33.94577 | -118.41653 | 126 ft | 1 kts | 83° |
| 2026-05-05 02:46 | 33.94576 | -118.41664 | 126 ft | 2 kts | 79° |
| 2026-05-05 02:46 | 33.94570 | -118.41681 | 126 ft | 2 kts | 53° |
| 2026-05-05 02:46 | 33.94559 | -118.41694 | 126 ft | 2 kts | 34° |
| 2026-05-05 02:47 | 33.94546 | -118.41702 | 125 ft | 2 kts | 14° |
| 2026-05-05 02:47 | 33.94532 | -118.41703 | 125 ft | 0 kts | 356° |
| 2026-05-05 02:47 | 33.94526 | -118.41702 | 125 ft | 1 kts | 352° |
| 2026-05-05 02:47 | 33.94524 | -118.41702 | 125 ft | 0 kts | 352° |
| 2026-05-05 02:51 | 33.94525 | -118.41702 | 125 ft | 0 kts | 352° |
| 2026-05-05 02:52 | 33.94535 | -118.41704 | 125 ft | 2 kts | 352° |
| 2026-05-05 02:52 | 33.94554 | -118.41707 | 125 ft | 3 kts | 352° |
| 2026-05-05 02:52 | 33.94580 | -118.41711 | 126 ft | 4 kts | 352° |
| 2026-05-05 02:52 | 33.94613 | -118.41717 | 126 ft | 5 kts | 354° |
| 2026-05-05 02:53 | 33.94647 | -118.41696 | 126 ft | 6 kts | 59° |
| 2026-05-05 02:53 | 33.94658 | -118.41637 | 126 ft | 8 kts | 83° |
| 2026-05-05 02:53 | 33.94664 | -118.41563 | 127 ft | 9 kts | 83° |
| 2026-05-05 02:53 | 33.94672 | -118.41481 | 128 ft | 10 kts | 83° |
| 2026-05-05 02:54 | 33.94681 | -118.41389 | 128 ft | 11 kts | 83° |
| 2026-05-05 02:54 | 33.94691 | -118.41290 | 129 ft | 11 kts | 83° |
| 2026-05-05 02:54 | 33.94712 | -118.41199 | 130 ft | 11 kts | 70° |
| 2026-05-05 02:54 | 33.94733 | -118.41102 | 131 ft | 12 kts | 83° |
| 2026-05-05 02:55 | 33.94743 | -118.40994 | 131 ft | 13 kts | 84° |
| 2026-05-05 02:55 | 33.94755 | -118.40872 | 130 ft | 15 kts | 83° |
| 2026-05-05 02:55 | 33.94770 | -118.40736 | 129 ft | 16 kts | 82° |
| 2026-05-05 02:55 | 33.94785 | -118.40593 | 128 ft | 18 kts | 85° |
| 2026-05-05 02:56 | 33.94799 | -118.40440 | 127 ft | 18 kts | 81° |
| 2026-05-05 02:56 | 33.94818 | -118.40295 | 126 ft | 15 kts | 80° |
| 2026-05-05 02:56 | 33.94835 | -118.40165 | 126 ft | 16 kts | 82° |
| 2026-05-05 02:56 | 33.94900 | -118.40070 | 123 ft | 17 kts | 4° |
| 2026-05-05 02:57 | 33.95010 | -118.40071 | 119 ft | 8 kts | 347° |
| 2026-05-05 02:57 | 33.95026 | -118.40103 | 120 ft | 6 kts | 277° |
| 2026-05-05 02:57 | 33.95022 | -118.40157 | 121 ft | 3 kts | 262° |
| 2026-05-05 02:57 | 33.95022 | -118.40158 | 121 ft | 0 kts | 262° |
| 2026-05-05 02:58 | 33.95010 | -118.40255 | 122 ft | 41 kts | 262° |
| 2026-05-05 02:58 | 33.94944 | -118.40905 | 130 ft | 113 kts | 264° |
| 2026-05-05 02:58 | 33.94821 | -118.42090 | 264 ft | 159 kts | 262° |
| 2026-05-05 02:58 | 33.94688 | -118.43426 | 926 ft | 163 kts | 262° |
| 2026-05-05 02:59 | 33.94553 | -118.44717 | 1725 ft | 159 kts | 263° |
| 2026-05-05 02:59 | 33.94413 | -118.46053 | 2271 ft | 168 kts | 262° |
| 2026-05-05 02:59 | 33.93978 | -118.47396 | 2689 ft | 185 kts | 231° |
| 2026-05-05 02:59 | 33.92817 | -118.48211 | 3115 ft | 206 kts | 194° |
| 2026-05-05 03:00 | 33.91314 | -118.48035 | 3473 ft | 233 kts | 159° |
| 2026-05-05 03:00 | 33.89934 | -118.46867 | 3953 ft | 256 kts | 130° |
| 2026-05-05 03:00 | 33.89250 | -118.44843 | 4519 ft | 275 kts | 94° |
| 2026-05-05 03:00 | 33.89666 | -118.42631 | 5330 ft | 280 kts | 59° |
| 2026-05-05 03:01 | 33.91055 | -118.41017 | 6187 ft | 281 kts | 27° |
| 2026-05-05 03:01 | 33.92829 | -118.40104 | 7021 ft | 284 kts | 24° |
| 2026-05-05 03:01 | 33.94512 | -118.38792 | 7834 ft | 290 kts | 39° |
| 2026-05-05 03:01 | 33.95978 | -118.37139 | 8661 ft | 294 kts | 45° |
| 2026-05-05 03:02 | 33.97380 | -118.35343 | 9456 ft | 298 kts | 47° |
| 2026-05-05 03:02 | 33.98793 | -118.33470 | 10224 ft | 302 kts | 47° |
| 2026-05-05 03:02 | 34.00135 | -118.31456 | 10728 ft | 317 kts | 54° |